Time;durP1;ratioP1;P1;durP2;ratioP2;P2;SDS_P1;SDS_P2;PMS_P1;PMS_P2;Temp;Humidity;BMP_temperature;BMP_pressure;BME280_temperature;BME280_humidity;BME280_pressure;Samples;Min_cycle;Max_cycle;Signal;HPM_P1;HPM_P2
2022/03/18 00:02:12;;;;;;;2.50;1.13;;;17.30;58.10;;;;;;10382969;28;20413;-61
2022/03/18 00:07:12;;;;;;;3.10;1.30;;;17.30;58.00;;;;;;10377296;28;20061;-61
2022/03/18 00:12:14;;;;;;;2.85;0.85;;;17.20;58.00;;;;;;10359585;28;20117;-62
2022/03/18 00:17:14;;;;;;;1.88;0.70;;;17.20;58.00;;;;;;10342977;28;20025;-61
2022/03/18 00:22:16;;;;;;;2.30;1.25;;;17.30;57.70;;;;;;10376768;28;20070;-60
2022/03/18 00:27:16;;;;;;;2.67;1.02;;;17.40;57.60;;;;;;10376349;28;20053;-61
2022/03/18 00:32:17;;;;;;;3.95;1.20;;;17.30;57.70;;;;;;10394811;28;20109;-61
2022/03/18 00:37:18;;;;;;;2.40;1.00;;;17.20;57.80;;;;;;10417221;28;20061;-61
2022/03/18 00:42:19;;;;;;;2.15;1.10;;;17.20;57.70;;;;;;10400089;28;20038;-60
2022/03/18 00:52:39;;;;;;;2.37;1.00;;;17.40;57.20;;;;;;10377980;28;20042;-61
2022/03/18 00:57:40;;;;;;;2.78;1.02;;;17.40;57.30;;;;;;10374220;28;20107;-60
2022/03/18 01:02:40;;;;;;;2.85;1.00;;;17.30;57.40;;;;;;10375165;28;20034;-60
2022/03/18 01:07:41;;;;;;;2.10;1.00;;;17.30;57.40;;;;;;10370496;28;20034;-60
2022/03/18 01:12:42;;;;;;;4.75;1.00;;;17.30;57.30;;;;;;10369313;28;20482;-60
2022/03/18 01:17:42;;;;;;;1.92;1.10;;;17.30;57.40;;;;;;10386565;28;20555;-61
2022/03/18 01:22:43;;;;;;;2.60;1.20;;;17.30;57.40;;;;;;10413502;28;20036;-61
2022/03/18 01:27:44;;;;;;;2.85;1.13;;;17.30;57.10;;;;;;10414657;28;20501;-61
2022/03/18 01:32:45;;;;;;;2.95;0.90;;;17.40;56.80;;;;;;10409288;28;20029;-60
2022/03/18 01:37:45;;;;;;;2.13;0.88;;;17.40;56.90;;;;;;10380663;28;20477;-60
2022/03/18 01:42:46;;;;;;;2.47;1.08;;;17.30;57.10;;;;;;10409141;28;20068;-60
2022/03/18 01:47:47;;;;;;;3.00;1.23;;;17.20;57.10;;;;;;10414331;28;20025;-61
2022/03/18 01:52:48;;;;;;;3.80;1.02;;;17.30;57.00;;;;;;10413048;28;20080;-61
2022/03/18 01:57:49;;;;;;;2.33;1.10;;;17.30;57.10;;;;;;10392990;28;20030;-60
2022/03/18 02:02:49;;;;;;;2.20;1.10;;;17.30;56.80;;;;;;10373160;28;20040;-60
2022/03/18 02:07:51;;;;;;;2.40;1.15;;;17.30;56.80;;;;;;10372634;28;20065;-60
2022/03/18 02:12:51;;;;;;;3.00;1.05;;;17.30;56.90;;;;;;10380803;28;20184;-60
2022/03/18 02:17:52;;;;;;;2.33;1.33;;;17.30;56.80;;;;;;10381102;28;20403;-60
2022/03/18 02:22:53;;;;;;;1.92;0.95;;;17.30;56.60;;;;;;10372605;28;20442;-60
2022/03/18 02:28:01;;;;;;;1.98;1.20;;;17.40;56.40;;;;;;10378083;28;20393;-60
2022/03/18 02:33:02;;;;;;;1.73;1.00;;;17.40;56.40;;;;;;10372366;28;20076;-61
2022/03/18 02:38:03;;;;;;;2.47;1.10;;;17.30;56.60;;;;;;10373231;28;20153;-60
2022/03/18 02:43:04;;;;;;;2.00;1.25;;;17.30;56.60;;;;;;10411663;28;20640;-61
2022/03/18 02:48:06;;;;;;;2.10;0.98;;;17.30;56.40;;;;;;10412393;28;20087;-60
2022/03/18 02:53:07;;;;;;;1.88;0.98;;;17.30;56.50;;;;;;10376474;28;20033;-61
2022/03/18 02:58:07;;;;;;;2.05;1.02;;;17.30;56.40;;;;;;10372151;28;20061;-60
2022/03/18 03:03:08;;;;;;;3.58;1.35;;;17.30;56.40;;;;;;10371644;28;20033;-60
2022/03/18 03:08:09;;;;;;;3.60;1.00;;;17.30;56.40;;;;;;10371409;28;20054;-60
2022/03/18 03:13:10;;;;;;;1.95;0.95;;;17.30;56.30;;;;;;10402467;28;20025;-60
2022/03/18 03:18:11;;;;;;;1.98;0.95;;;17.30;56.30;;;;;;10364719;28;20522;-60
2022/03/18 03:23:12;;;;;;;3.45;1.00;;;17.30;56.20;;;;;;10379440;28;20112;-60
2022/03/18 03:28:12;;;;;;;1.95;1.00;;;17.40;56.00;;;;;;10378502;28;20139;-60
2022/03/18 03:33:13;;;;;;;2.28;1.08;;;17.30;56.10;;;;;;10394135;28;20440;-60
2022/03/18 03:38:14;;;;;;;2.22;1.10;;;17.30;56.70;;;;;;10382606;28;20461;-61
2022/03/18 03:43:15;;;;;;;1.40;1.00;;;17.30;56.00;;;;;;10380620;28;20509;-61
2022/03/18 03:48:16;;;;;;;1.63;1.05;;;17.30;55.90;;;;;;10388082;28;20034;-60
2022/03/18 03:53:17;;;;;;;1.85;0.98;;;17.30;55.90;;;;;;10405567;28;20512;-60
2022/03/18 03:58:18;;;;;;;2.13;1.27;;;17.30;55.90;;;;;;10386638;28;20534;-60
2022/03/18 04:03:18;;;;;;;1.88;0.90;;;17.30;56.00;;;;;;10377838;28;20030;-61
2022/03/18 04:08:19;;;;;;;2.72;1.08;;;17.20;55.90;;;;;;10377194;28;20048;-60
2022/03/18 04:13:20;;;;;;;1.88;0.82;;;17.30;55.80;;;;;;10377279;28;20474;-60
2022/03/18 04:18:21;;;;;;;1.17;0.60;;;17.20;55.80;;;;;;10417502;28;20029;-60
2022/03/18 04:23:22;;;;;;;3.30;1.00;;;17.20;55.80;;;;;;10416458;28;20037;-61
2022/03/18 04:28:22;;;;;;;2.05;0.85;;;17.30;55.70;;;;;;10416377;28;20527;-60
2022/03/18 04:33:23;;;;;;;1.52;0.90;;;17.30;55.60;;;;;;10417239;28;20060;-60
2022/03/18 04:38:24;;;;;;;1.67;0.90;;;17.40;55.60;;;;;;10382531;28;20048;-60
2022/03/18 04:43:25;;;;;;;1.77;0.85;;;17.30;55.50;;;;;;10416870;28;20107;-60
2022/03/18 04:48:25;;;;;;;1.35;0.70;;;17.30;55.50;;;;;;10385040;28;20059;-61
2022/03/18 04:53:26;;;;;;;1.60;0.70;;;17.30;55.50;;;;;;10403572;28;20092;-60
2022/03/18 04:58:27;;;;;;;1.92;0.82;;;17.20;55.50;;;;;;10375615;28;20056;-60
2022/03/18 05:03:28;;;;;;;1.77;1.00;;;17.20;55.50;;;;;;10375048;28;20112;-60
2022/03/18 05:08:29;;;;;;;1.83;0.90;;;17.30;55.50;;;;;;10372002;28;20429;-61
2022/03/18 05:13:29;;;;;;;2.15;0.85;;;17.20;55.50;;;;;;10415561;28;20119;-60
2022/03/18 05:18:30;;;;;;;1.38;0.70;;;17.20;55.50;;;;;;10409774;28;20045;-60
2022/03/18 05:23:32;;;;;;;2.45;1.33;;;17.20;55.50;;;;;;10369581;28;20029;-60
2022/03/18 05:28:33;;;;;;;2.10;1.08;;;17.20;55.50;;;;;;10397406;28;20049;-61
2022/03/18 05:33:34;;;;;;;1.80;0.90;;;17.20;55.30;;;;;;10392462;28;20053;-61
2022/03/18 05:38:34;;;;;;;1.95;1.17;;;17.30;55.30;;;;;;10385008;28;20037;-60
2022/03/18 05:43:36;;;;;;;1.30;0.50;;;17.30;55.30;;;;;;10371206;28;20152;-60
2022/03/18 05:48:38;;;;;;;0.98;0.80;;;17.30;55.10;;;;;;10388272;28;20116;-60
2022/03/18 05:53:38;;;;;;;1.65;0.88;;;17.30;55.20;;;;;;10387073;28;20061;-59
2022/03/18 05:58:40;;;;;;;4.28;1.10;;;17.20;55.20;;;;;;10388697;28;20041;-61
2022/03/18 06:03:40;;;;;;;17.58;2.03;;;17.10;56.10;;;;;;10384923;28;20103;-60
2022/03/18 06:14:00;;;;;;;9.23;1.45;;;17.30;58.30;;;;;;10385661;28;20038;-60
2022/03/18 06:19:01;;;;;;;10.15;2.70;;;17.30;57.10;;;;;;10375288;28;20038;-59
2022/03/18 06:24:02;;;;;;;12.82;2.47;;;17.40;57.10;;;;;;10372490;28;20038;-59
2022/03/18 06:29:05;;;;;;;15.93;2.08;;;17.40;56.60;;;;;;10373633;28;20054;-58
2022/03/18 06:34:07;;;;;;;17.15;2.60;;;17.40;57.10;;;;;;10391918;28;20036;-58
2022/03/18 06:39:08;;;;;;;15.13;2.33;;;17.20;58.10;;;;;;10383190;28;20528;-58
2022/03/18 06:44:09;;;;;;;12.32;2.25;;;17.30;58.20;;;;;;10381808;28;20095;-57
2022/03/18 06:49:10;;;;;;;11.90;2.70;;;17.20;58.20;;;;;;10412344;28;20156;-56
2022/03/18 06:54:12;;;;;;;14.75;3.05;;;17.20;58.40;;;;;;10396660;28;20034;-60
2022/03/18 06:59:13;;;;;;;26.02;3.67;;;17.20;58.60;;;;;;10406560;28;20053;-60
2022/03/18 07:04:13;;;;;;;33.28;4.15;;;17.10;59.00;;;;;;10414429;28;20539;-58
2022/03/18 07:09:14;;;;;;;13.50;2.65;;;17.10;57.90;;;;;;10399649;28;20086;-57
2022/03/18 07:14:15;;;;;;;21.33;4.43;;;17.10;58.10;;;;;;10412556;28;20504;-58
2022/03/18 07:19:15;;;;;;;19.52;3.55;;;17.10;57.40;;;;;;10412259;28;20269;-57
2022/03/18 07:24:16;;;;;;;12.43;2.63;;;17.00;57.20;;;;;;10391463;28;20076;-58
2022/03/18 07:29:17;;;;;;;14.30;2.83;;;17.10;56.80;;;;;;10399120;28;20049;-56
2022/03/18 07:34:18;;;;;;;17.65;3.95;;;17.10;56.80;;;;;;10389842;28;20511;-58
2022/03/18 07:39:19;;;;;;;15.27;2.47;;;17.10;57.30;;;;;;10377944;28;20053;-59
2022/03/18 07:44:19;;;;;;;13.65;2.83;;;17.00;57.80;;;;;;10390985;28;20033;-60
2022/03/18 07:49:21;;;;;;;17.30;3.65;;;17.10;57.20;;;;;;10401188;28;20439;-59
2022/03/18 07:54:21;;;;;;;11.30;3.25;;;16.90;57.90;;;;;;10393109;28;20088;-59
2022/03/18 07:59:22;;;;;;;17.45;3.55;;;16.90;58.90;;;;;;10380312;28;20582;-59
2022/03/18 08:04:23;;;;;;;24.38;3.33;;;16.80;59.50;;;;;;10376681;28;20092;-59
2022/03/18 08:09:24;;;;;;;24.20;3.85;;;16.90;60.20;;;;;;10388957;28;20449;-60
2022/03/18 08:14:25;;;;;;;21.90;3.47;;;16.90;60.20;;;;;;10411836;28;20034;-59
2022/03/18 08:19:26;;;;;;;11.65;2.95;;;16.80;60.30;;;;;;10386386;28;20037;-60
2022/03/18 08:24:26;;;;;;;31.50;4.50;;;16.90;60.50;;;;;;10417421;28;20378;-60
2022/03/18 08:29:27;;;;;;;37.85;5.53;;;16.90;60.50;;;;;;10410710;28;20065;-60
2022/03/18 08:34:28;;;;;;;34.70;5.97;;;16.80;60.60;;;;;;10376308;28;20437;-60
2022/03/18 08:39:29;;;;;;;38.50;6.22;;;16.90;60.70;;;;;;10379901;28;20064;-60
2022/03/18 08:44:29;;;;;;;41.25;6.32;;;16.90;61.00;;;;;;10404814;28;20026;-60
2022/03/18 08:49:30;;;;;;;30.48;5.40;;;16.90;60.90;;;;;;10393034;28;20060;-59
2022/03/18 08:54:31;;;;;;;41.05;6.60;;;16.90;61.00;;;;;;10372878;28;20110;-60
2022/03/18 08:59:31;;;;;;;29.33;5.43;;;16.90;61.00;;;;;;10398073;28;20045;-62
2022/03/18 09:04:32;;;;;;;33.95;4.95;;;16.90;61.40;;;;;;10374844;28;20026;-59
2022/03/18 09:09:33;;;;;;;22.00;4.15;;;16.90;61.10;;;;;;10380933;28;20056;-61
2022/03/18 09:14:34;;;;;;;30.73;4.90;;;16.90;61.00;;;;;;10371322;28;20485;-60
2022/03/18 09:19:37;;;;;;;19.75;4.72;;;16.90;61.10;;;;;;10394958;28;20041;-60
2022/03/18 09:24:38;;;;;;;20.98;4.55;;;16.80;60.90;;;;;;10373992;28;20033;-60
2022/03/18 09:29:39;;;;;;;21.63;4.93;;;16.80;60.90;;;;;;10370233;28;20393;-59
2022/03/18 09:34:40;;;;;;;14.50;3.05;;;16.80;60.80;;;;;;10373881;28;20033;-60
2022/03/18 09:39:40;;;;;;;19.38;3.53;;;16.80;60.70;;;;;;10374183;28;20187;-59
2022/03/18 09:44:41;;;;;;;13.98;3.83;;;16.90;60.80;;;;;;10414510;28;20057;-60
2022/03/18 09:49:45;;;;;;;16.75;3.33;;;16.90;60.70;;;;;;10402480;28;20100;-59
2022/03/18 09:54:45;;;;;;;10.90;2.80;;;16.90;60.60;;;;;;10375901;28;20068;-60
2022/03/18 09:59:47;;;;;;;15.30;2.85;;;16.90;60.50;;;;;;10376981;28;20459;-59
2022/03/18 10:05:03;;;;;;;18.67;4.68;;;16.90;60.50;;;;;;10381549;28;20433;-60
2022/03/18 10:10:15;;;;;;;9.80;2.75;;;17.00;60.50;;;;;;10383265;28;20045;-60
2022/03/18 10:15:22;;;;;;;12.63;3.38;;;17.00;60.30;;;;;;10384420;28;20109;-59
2022/03/18 10:20:45;;;;;;;12.30;3.58;;;17.00;60.30;;;;;;10368632;28;20041;-60
2022/03/18 10:25:55;;;;;;;10.48;2.88;;;17.00;60.20;;;;;;10368299;28;20045;-60
2022/03/18 10:31:14;;;;;;;8.30;2.38;;;17.00;60.10;;;;;;10389447;28;20040;-59
2022/03/18 10:41:48;;;;;;;13.18;3.00;;;17.10;59.80;;;;;;10362455;28;20477;-60
2022/03/18 10:46:50;;;;;;;13.65;2.65;;;17.10;60.00;;;;;;10372802;28;20045;-61
2022/03/18 10:51:51;;;;;;;11.07;2.65;;;17.10;60.20;;;;;;10383118;28;20046;-60
2022/03/18 10:56:55;;;;;;;8.77;2.35;;;17.30;60.20;;;;;;10375694;28;20042;-57
2022/03/18 11:01:57;;;;;;;9.60;2.47;;;17.30;60.00;;;;;;10371928;28;20033;-59
2022/03/18 11:12:23;;;;;;;10.48;2.30;;;17.20;59.60;;;;;;10394021;28;20049;-60
2022/03/18 11:17:25;;;;;;;10.68;2.05;;;17.20;59.50;;;;;;10402038;28;20025;-60
2022/03/18 11:22:26;;;;;;;11.32;3.17;;;17.30;59.40;;;;;;10408648;28;20052;-59
2022/03/18 11:27:28;;;;;;;11.77;2.75;;;17.30;59.20;;;;;;10351425;28;20091;-58
2022/03/18 11:32:29;;;;;;;12.98;2.45;;;17.40;59.20;;;;;;10376822;28;20038;-57
2022/03/18 11:37:30;;;;;;;12.20;2.53;;;17.40;59.20;;;;;;10376410;28;20026;-59
2022/03/18 11:42:31;;;;;;;9.50;3.25;;;17.50;59.30;;;;;;10384496;28;20121;-58
2022/03/18 11:47:31;;;;;;;11.07;2.33;;;17.50;59.50;;;;;;10377416;28;20040;-59
2022/03/18 11:52:33;;;;;;;8.75;1.92;;;17.60;59.70;;;;;;10375325;28;20029;-60
2022/03/18 11:57:45;;;;;;;8.30;1.98;;;17.60;59.90;;;;;;10399481;28;20087;-59
2022/03/18 12:02:46;;;;;;;14.05;2.13;;;17.50;60.20;;;;;;10377980;28;20436;-62
2022/03/18 12:07:50;;;;;;;10.80;2.28;;;17.60;60.10;;;;;;10376843;28;20121;-65
2022/03/18 12:12:50;;;;;;;10.70;2.45;;;17.60;60.20;;;;;;10360053;28;20437;-65
2022/03/18 12:17:54;;;;;;;6.97;1.70;;;17.50;60.40;;;;;;10377067;28;20040;-64
2022/03/18 12:22:55;;;;;;;11.75;3.42;;;17.50;60.00;;;;;;10396956;28;20413;-65
2022/03/18 12:27:56;;;;;;;7.75;2.28;;;17.50;59.80;;;;;;10417458;28;20053;-64
2022/03/18 12:33:00;;;;;;;15.52;3.08;;;17.50;59.60;;;;;;10417145;28;20030;-61
2022/03/18 12:38:15;;;;;;;13.93;2.58;;;17.60;59.70;;;;;;10375608;28;20111;-61
2022/03/18 12:43:17;;;;;;;13.70;2.70;;;17.60;60.00;;;;;;10392974;28;20083;-63
2022/03/18 12:48:21;;;;;;;17.67;3.25;;;17.60;60.00;;;;;;10412364;28;20034;-59
2022/03/18 12:53:33;;;;;;;12.25;2.50;;;17.80;59.60;;;;;;10402485;28;20036;-58
2022/03/18 12:58:41;;;;;;;17.10;3.13;;;17.70;59.10;;;;;;10383253;28;20030;-59
2022/03/18 13:03:50;;;;;;;9.55;1.95;;;17.70;59.40;;;;;;10401221;28;20412;-59
2022/03/18 13:09:09;;;;;;;10.57;2.17;;;17.70;59.40;;;;;;10415854;28;20369;-59
2022/03/18 13:14:10;;;;;;;6.95;2.13;;;17.70;59.50;;;;;;10405713;28;20377;-59
2022/03/18 13:19:11;;;;;;;7.82;2.13;;;17.70;59.60;;;;;;10374812;28;20030;-59
2022/03/18 13:24:13;;;;;;;17.88;3.28;;;17.70;59.50;;;;;;10384797;28;20022;-60
2022/03/18 13:29:15;;;;;;;20.73;4.30;;;17.70;59.40;;;;;;10377647;28;20053;-61
2022/03/18 13:34:32;;;;;;;17.58;2.45;;;17.60;59.80;;;;;;10374091;28;20371;-60
2022/03/18 13:39:33;;;;;;;12.38;2.58;;;17.70;60.00;;;;;;10374602;28;20021;-61
2022/03/18 13:44:47;;;;;;;16.58;3.60;;;17.70;59.50;;;;;;10385761;28;20032;-60
2022/03/18 13:49:57;;;;;;;9.93;2.00;;;17.70;59.60;;;;;;10373412;28;20520;-60
2022/03/18 13:54:59;;;;;;;13.60;2.45;;;17.70;59.50;;;;;;10376054;28;20390;-61
2022/03/18 13:59:59;;;;;;;11.15;2.05;;;17.80;59.30;;;;;;10379936;28;20394;-61
2022/03/18 14:05:00;;;;;;;11.52;1.98;;;17.80;59.60;;;;;;10412980;28;20041;-60
2022/03/18 14:10:07;;;;;;;11.35;2.47;;;17.80;59.30;;;;;;10362489;28;20130;-60
2022/03/18 14:15:18;;;;;;;13.65;4.75;;;17.80;58.70;;;;;;10372541;28;20057;-61
2022/03/18 14:20:19;;;;;;;11.50;2.60;;;17.80;57.90;;;;;;10372873;28;20026;-57
2022/03/18 14:25:20;;;;;;;13.05;2.35;;;17.70;58.10;;;;;;10372447;28;20125;-58
2022/03/18 14:30:26;;;;;;;9.77;1.90;;;17.70;58.50;;;;;;10380761;28;20065;-58
2022/03/18 14:35:27;;;;;;;8.32;2.25;;;17.70;58.60;;;;;;10413001;28;20029;-60
2022/03/18 14:40:28;;;;;;;9.48;2.13;;;17.80;58.70;;;;;;10388309;28;20536;-59
2022/03/18 14:45:29;;;;;;;8.55;2.30;;;17.90;58.90;;;;;;10375821;28;20104;-60
2022/03/18 14:50:29;;;;;;;12.00;2.83;;;17.80;58.90;;;;;;10411646;28;20466;-61
2022/03/18 15:00:51;;;;;;;8.68;2.58;;;17.80;59.40;;;;;;10370039;28;20121;-60
2022/03/18 15:05:51;;;;;;;9.95;2.58;;;17.80;59.60;;;;;;10370781;28;20092;-60
2022/03/18 15:10:52;;;;;;;10.02;2.63;;;17.70;59.60;;;;;;10354034;28;20424;-60
2022/03/18 15:15:53;;;;;;;9.95;3.13;;;17.70;59.80;;;;;;10375546;28;20438;-60
2022/03/18 15:20:54;;;;;;;11.30;3.53;;;17.60;59.70;;;;;;10385877;28;20029;-59
2022/03/18 15:25:55;;;;;;;7.60;3.00;;;17.60;59.60;;;;;;10419876;28;20547;-60
2022/03/18 15:30:55;;;;;;;7.75;2.60;;;17.50;59.40;;;;;;10390522;28;20084;-60
2022/03/18 15:35:58;;;;;;;11.05;2.35;;;17.50;59.20;;;;;;10378349;28;20075;-60
2022/03/18 15:40:59;;;;;;;9.55;2.47;;;17.50;59.20;;;;;;10394460;28;20029;-60
2022/03/18 15:46:00;;;;;;;8.00;2.45;;;17.50;59.00;;;;;;10387211;28;20038;-60
2022/03/18 15:51:02;;;;;;;7.22;2.20;;;17.50;59.00;;;;;;10419089;28;20033;-60
2022/03/18 15:56:03;;;;;;;9.10;2.00;;;17.40;59.00;;;;;;10367367;28;20061;-63
2022/03/18 16:01:04;;;;;;;9.95;2.58;;;17.50;58.90;;;;;;10377919;28;20026;-62
2022/03/18 16:06:05;;;;;;;12.60;2.47;;;17.40;58.70;;;;;;10377593;28;20156;-61
2022/03/18 16:11:06;;;;;;;12.65;2.53;;;17.40;58.70;;;;;;10360014;28;20417;-60
2022/03/18 16:16:06;;;;;;;10.00;3.47;;;17.40;58.70;;;;;;10385161;28;20021;-60
2022/03/18 16:21:07;;;;;;;15.27;3.20;;;17.40;59.00;;;;;;10418053;28;20049;-60
2022/03/18 16:26:08;;;;;;;17.90;3.03;;;17.40;59.50;;;;;;10410186;28;20605;-61
2022/03/18 16:31:18;;;;;;;16.65;3.78;;;17.40;59.10;;;;;;10376176;28;20058;-61
2022/03/18 16:36:18;;;;;;;12.48;3.90;;;17.40;59.70;;;;;;10391437;28;20037;-60
2022/03/18 16:41:19;;;;;;;10.63;2.38;;;17.40;59.90;;;;;;10367345;28;20061;-59
2022/03/18 16:51:39;;;;;;;13.77;3.17;;;17.40;60.80;;;;;;10389181;28;20045;-60
2022/03/18 16:56:40;;;;;;;17.25;2.65;;;17.50;61.10;;;;;;10379107;28;20061;-59
2022/03/18 17:01:50;;;;;;;15.70;2.97;;;17.50;61.40;;;;;;10371799;28;20122;-59
2022/03/18 17:06:53;;;;;;;9.70;3.10;;;17.50;61.80;;;;;;10375394;28;20100;-62
2022/03/18 17:11:54;;;;;;;11.23;2.55;;;17.50;62.00;;;;;;10357345;28;20038;-61
2022/03/18 17:16:55;;;;;;;16.17;3.40;;;17.40;62.00;;;;;;10374945;28;20475;-60
2022/03/18 17:21:56;;;;;;;15.30;3.47;;;17.40;62.10;;;;;;10372558;28;20034;-58
2022/03/18 17:26:57;;;;;;;9.85;2.88;;;17.40;61.80;;;;;;10373168;28;20080;-59
2022/03/18 17:31:57;;;;;;;15.30;2.70;;;17.30;64.20;;;;;;10373993;28;20045;-60
2022/03/18 17:36:58;;;;;;;11.40;2.65;;;17.40;64.50;;;;;;10372868;28;20451;-59
2022/03/18 17:42:04;;;;;;;18.85;3.28;;;17.30;64.80;;;;;;10379380;28;20045;-58
2022/03/18 17:47:05;;;;;;;8.25;2.28;;;17.40;64.60;;;;;;10390652;28;20026;-58
2022/03/18 17:52:07;;;;;;;8.52;1.92;;;17.30;64.60;;;;;;10357563;28;20466;-61
2022/03/18 17:57:08;;;;;;;11.63;2.90;;;17.30;64.30;;;;;;10376046;28;20104;-60
2022/03/18 18:02:08;;;;;;;8.57;1.73;;;17.30;64.90;;;;;;10370265;28;20449;-59
2022/03/18 18:07:11;;;;;;;7.95;1.83;;;17.20;62.60;;;;;;10368148;28;20411;-59
2022/03/18 18:12:14;;;;;;;11.10;2.05;;;17.20;62.50;;;;;;10372520;28;20374;-59
2022/03/18 18:17:14;;;;;;;7.45;1.50;;;17.10;62.60;;;;;;10372380;28;20036;-60
2022/03/18 18:22:17;;;;;;;6.50;1.70;;;17.10;62.80;;;;;;10371286;28;20501;-59
2022/03/18 18:27:20;;;;;;;4.47;1.40;;;17.00;62.70;;;;;;10366765;28;20041;-60
2022/03/18 18:32:24;;;;;;;4.80;1.40;;;17.00;62.60;;;;;;10379898;28;20033;-59
2022/03/18 18:37:24;;;;;;;7.95;2.22;;;17.00;62.60;;;;;;10375961;28;20021;-61
2022/03/18 18:42:27;;;;;;;7.95;1.75;;;17.00;62.60;;;;;;10370274;28;20076;-61
2022/03/18 18:47:29;;;;;;;5.78;2.35;;;17.00;62.50;;;;;;10379401;28;20410;-60
2022/03/18 18:52:31;;;;;;;3.67;1.45;;;17.00;62.60;;;;;;10387307;28;20501;-61
2022/03/18 18:57:32;;;;;;;4.55;1.67;;;17.00;62.50;;;;;;10384792;28;20033;-61
2022/03/18 19:02:32;;;;;;;4.70;1.48;;;17.00;62.50;;;;;;10392273;28;20371;-61
2022/03/18 19:07:33;;;;;;;5.47;2.40;;;16.90;62.30;;;;;;10390490;28;20559;-61
2022/03/18 19:12:35;;;;;;;4.70;2.05;;;17.00;63.10;;;;;;10390070;28;20037;-61
2022/03/18 19:17:36;;;;;;;4.45;2.53;;;17.00;63.20;;;;;;10371564;28;20096;-61
2022/03/18 19:22:38;;;;;;;3.17;1.75;;;17.00;62.20;;;;;;10374405;28;20037;-61
2022/03/18 19:27:39;;;;;;;6.18;3.55;;;16.90;62.20;;;;;;10385239;28;20517;-61
2022/03/18 19:32:41;;;;;;;3.58;1.85;;;16.90;62.20;;;;;;10370268;28;20121;-61
2022/03/18 19:37:42;;;;;;;2.80;1.83;;;16.90;62.20;;;;;;10392822;28;20039;-61
2022/03/18 19:42:43;;;;;;;6.60;2.40;;;16.90;62.30;;;;;;10393556;28;20033;-60
2022/03/18 19:47:44;;;;;;;4.45;2.35;;;16.90;62.20;;;;;;10391277;28;20034;-61
2022/03/18 19:52:45;;;;;;;3.45;1.92;;;16.90;62.10;;;;;;10374403;28;20065;-61
2022/03/18 20:03:07;;;;;;;7.38;2.70;;;16.80;62.00;;;;;;10393054;28;20046;-61
2022/03/18 20:08:09;;;;;;;6.88;2.30;;;16.90;62.30;;;;;;10385863;28;20116;-61
2022/03/18 20:13:12;;;;;;;5.78;2.10;;;16.90;62.50;;;;;;10399704;28;20033;-62
2022/03/18 20:18:13;;;;;;;7.40;2.00;;;17.00;62.60;;;;;;10400658;28;20537;-61
2022/03/18 20:23:14;;;;;;;6.57;2.10;;;17.00;62.60;;;;;;10394584;28;20164;-61
2022/03/18 20:28:15;;;;;;;5.25;1.90;;;17.00;62.60;;;;;;10390426;28;20045;-61
2022/03/18 20:33:17;;;;;;;3.65;2.13;;;17.00;62.60;;;;;;10401816;28;20018;-61
2022/03/18 20:38:18;;;;;;;5.55;1.70;;;17.00;62.70;;;;;;10374946;28;20033;-62
2022/03/18 20:43:20;;;;;;;5.32;1.80;;;17.00;62.60;;;;;;10376437;28;20085;-61
2022/03/18 20:48:21;;;;;;;7.90;2.10;;;16.90;62.40;;;;;;10376874;28;20371;-61
2022/03/18 20:53:22;;;;;;;3.20;1.70;;;16.90;63.00;;;;;;10377374;28;20026;-62
2022/03/18 20:58:22;;;;;;;8.48;1.98;;;16.90;62.40;;;;;;10376567;28;20144;-62
2022/03/18 21:03:23;;;;;;;6.53;2.13;;;16.80;62.20;;;;;;10401220;28;20022;-61
2022/03/18 21:08:24;;;;;;;3.63;2.38;;;16.90;62.30;;;;;;10413703;28;20061;-61
2022/03/18 21:13:24;;;;;;;3.60;1.60;;;16.80;62.10;;;;;;10414570;28;20069;-62
2022/03/18 21:18:25;;;;;;;4.28;1.92;;;16.80;62.00;;;;;;10414577;28;20030;-61
2022/03/18 21:23:28;;;;;;;4.22;1.60;;;16.80;62.00;;;;;;10415078;28;20117;-62
2022/03/18 21:33:48;;;;;;;6.77;2.93;;;16.90;62.00;;;;;;10386397;28;20089;-62
2022/03/18 21:38:49;;;;;;;3.25;1.85;;;16.90;61.90;;;;;;10371063;28;20116;-61
2022/03/18 21:43:49;;;;;;;4.63;1.63;;;16.90;61.80;;;;;;10398554;28;20556;-62
2022/03/18 21:48:51;;;;;;;3.42;1.50;;;16.80;61.70;;;;;;10413203;28;20069;-61
2022/03/18 21:53:51;;;;;;;3.30;1.70;;;16.90;61.80;;;;;;10380962;28;20540;-61
2022/03/18 21:58:52;;;;;;;2.45;1.73;;;17.00;61.50;;;;;;10373363;28;20105;-61
2022/03/18 22:03:54;;;;;;;3.50;1.45;;;17.00;61.50;;;;;;10413469;28;20481;-62
2022/03/18 22:08:56;;;;;;;5.43;1.92;;;17.00;61.50;;;;;;10413139;28;20490;-61
2022/03/18 22:13:58;;;;;;;5.28;1.70;;;17.00;61.70;;;;;;10411370;28;20038;-61
2022/03/18 22:18:58;;;;;;;4.20;1.42;;;16.90;61.70;;;;;;10411001;28;20028;-61
2022/03/18 22:23:59;;;;;;;3.50;1.38;;;16.90;61.60;;;;;;10412528;28;20469;-62
2022/03/18 22:29:00;;;;;;;4.53;1.15;;;16.90;61.60;;;;;;10402737;28;20867;-61
2022/03/18 22:34:00;;;;;;;2.80;1.13;;;16.90;61.50;;;;;;10372103;28;20084;-61
2022/03/18 22:39:01;;;;;;;2.05;1.35;;;16.90;61.50;;;;;;10378479;28;20065;-61
2022/03/18 22:44:02;;;;;;;3.80;1.42;;;16.80;61.50;;;;;;10371688;28;20038;-62
2022/03/18 22:49:03;;;;;;;2.50;1.13;;;16.80;61.50;;;;;;10371711;28;20034;-62
2022/03/18 22:54:03;;;;;;;1.23;0.90;;;16.80;61.40;;;;;;10359071;28;20044;-61
2022/03/18 22:59:04;;;;;;;1.67;1.10;;;16.80;61.50;;;;;;10367114;28;20080;-62
2022/03/18 23:04:05;;;;;;;2.25;1.00;;;16.80;61.50;;;;;;10371471;28;20370;-62
2022/03/18 23:09:06;;;;;;;2.40;1.10;;;16.80;61.50;;;;;;10371165;28;20453;-61
2022/03/18 23:14:06;;;;;;;1.95;1.20;;;16.90;61.60;;;;;;10370917;28;20044;-61
2022/03/18 23:19:07;;;;;;;2.50;1.23;;;16.90;61.30;;;;;;10378867;28;20026;-61
2022/03/18 23:24:08;;;;;;;2.83;1.02;;;16.90;61.20;;;;;;10410766;28;20083;-61
2022/03/18 23:29:09;;;;;;;2.53;1.35;;;16.90;61.40;;;;;;10410312;28;20083;-62
2022/03/18 23:34:09;;;;;;;2.55;1.10;;;17.00;61.10;;;;;;10411130;28;20053;-61
2022/03/18 23:39:10;;;;;;;1.40;0.82;;;17.10;60.90;;;;;;10385882;28;20038;-61
2022/03/18 23:44:11;;;;;;;1.42;0.80;;;17.10;60.60;;;;;;10373456;28;20034;-62
2022/03/18 23:49:12;;;;;;;2.00;0.90;;;17.20;60.60;;;;;;10377412;28;20433;-61
2022/03/18 23:54:13;;;;;;;1.70;0.90;;;17.10;60.80;;;;;;10379773;28;20061;-61
2022/03/18 23:59:13;;;;;;;2.67;1.02;;;17.00;61.00;;;;;;10377745;28;20034;-61
